Time;durP1;ratioP1;P1;durP2;ratioP2;P2;SDS_P1;SDS_P2;PMS_P1;PMS_P2;Temp;Humidity;BMP_temperature;BMP_pressure;BME280_temperature;BME280_humidity;BME280_pressure;Samples;Min_cycle;Max_cycle;Signal;HPM_P1;HPM_P2
2023/06/02 00:01:09;;;;;;;0.00;0.00;;;;;;;10.53;78.94;100762.63;4954554;28;20727;-75
2023/06/02 00:03:36;;;;;;;0.00;0.00;;;;;;;10.64;78.72;100764.06;4971546;28;20206;-76
2023/06/02 00:06:05;;;;;;;0.00;0.00;;;;;;;10.79;79.11;100770.31;4954304;28;20185;-75
2023/06/02 00:08:31;;;;;;;0.00;0.00;;;;;;;10.72;78.65;100770.75;4970663;28;20186;-75
2023/06/02 00:10:57;;;;;;;0.00;0.00;;;;;;;10.77;78.65;100762.44;4972216;28;20217;-76
2023/06/02 00:13:22;;;;;;;2.57;1.50;;;;;;;10.65;78.77;100762.94;4974748;28;20249;-75
2023/06/02 00:15:48;;;;;;;0.20;0.20;;;;;;;10.57;79.28;100768.31;4975162;28;20264;-73
2023/06/02 00:18:14;;;;;;;0.00;0.00;;;;;;;10.57;79.52;100773.78;4974580;28;20182;-75
2023/06/02 00:20:41;;;;;;;0.00;0.00;;;;;;;10.54;80.15;100769.72;4974908;28;20194;-75
2023/06/02 00:23:08;;;;;;;0.00;0.00;;;;;;;10.54;80.86;100764.25;4974851;28;20725;-74
2023/06/02 00:25:35;;;;;;;0.30;0.30;;;;;;;10.47;80.97;100769.31;4957469;28;20193;-75
2023/06/02 00:28:00;;;;;;;0.00;0.00;;;;;;;10.43;81.15;100769.13;4956907;28;20656;-74
2023/06/02 00:30:27;;;;;;;0.00;0.00;;;;;;;10.40;81.56;100771.63;4974601;28;20193;-75
2023/06/02 00:32:52;;;;;;;1.60;1.13;;;;;;;10.34;81.52;100770.91;4956957;28;20761;-75
2023/06/02 00:35:18;;;;;;;0.00;0.00;;;;;;;10.38;82.11;100774.66;4974736;28;20190;-75
2023/06/02 00:37:43;;;;;;;1.07;1.07;;;;;;;10.40;81.97;100774.34;4974129;28;20197;-75
2023/06/02 00:40:09;;;;;;;0.87;0.87;;;;;;;10.42;81.94;100769.41;4974488;28;20192;-74
2023/06/02 00:42:35;;;;;;;0.27;0.27;;;;;;;10.35;82.16;100769.81;4956921;28;20209;-75
2023/06/02 00:45:01;;;;;;;1.10;1.00;;;;;;;10.17;82.06;100767.94;4974529;28;20174;-75
2023/06/02 00:47:26;;;;;;;1.10;0.83;;;;;;;10.13;81.31;100762.25;4956911;28;20200;-75
2023/06/02 00:49:52;;;;;;;0.00;0.00;;;;;;;10.01;80.97;100759.19;4974090;28;20196;-74
2023/06/02 00:52:18;;;;;;;0.00;0.00;;;;;;;10.08;81.41;100769.72;4973898;28;20212;-75
2023/06/02 00:54:44;;;;;;;0.30;0.30;;;;;;;10.07;81.36;100771.63;4949141;28;20347;-75
2023/06/02 00:57:09;;;;;;;0.47;0.47;;;;;;;10.02;81.42;100766.28;4973843;28;20621;-75
2023/06/02 00:59:36;;;;;;;0.00;0.00;;;;;;;10.00;81.21;100771.22;4956402;28;20193;-75
2023/06/02 01:02:02;;;;;;;1.47;1.47;;;;;;;10.00;81.20;100765.78;4956655;28;20212;-74
2023/06/02 01:04:30;;;;;;;1.70;1.60;;;;;;;9.99;81.04;100763.34;4956735;28;20185;-73
2023/06/02 01:07:00;;;;;;;1.30;1.23;;;;;;;10.00;81.11;100768.50;4974006;28;20197;-75
2023/06/02 01:09:27;;;;;;;0.00;0.00;;;;;;;10.02;80.75;100769.00;4973811;28;20181;-76
2023/06/02 01:11:52;;;;;;;2.10;1.27;;;;;;;10.02;80.61;100766.28;4973748;28;20255;-74
2023/06/02 01:14:17;;;;;;;0.83;0.70;;;;;;;9.96;80.51;100764.72;4973933;28;20297;-76
2023/06/02 01:16:44;;;;;;;0.10;0.10;;;;;;;9.95;80.40;100768.56;4973913;28;20205;-76
2023/06/02 01:19:13;;;;;;;0.07;0.07;;;;;;;10.01;80.26;100772.84;4973556;28;20181;-76
2023/06/02 01:21:41;;;;;;;1.37;1.37;;;;;;;10.03;80.14;100770.63;4955809;28;20201;-76
2023/06/02 01:24:06;;;;;;;0.43;0.43;;;;;;;10.00;80.20;100773.16;4973664;28;20273;-74
2023/06/02 01:26:34;;;;;;;0.00;0.00;;;;;;;9.94;79.95;100766.13;4973638;28;20261;-75
2023/06/02 01:29:02;;;;;;;0.20;0.20;;;;;;;10.02;80.14;100769.00;4973263;28;20190;-76
2023/06/02 01:31:34;;;;;;;0.50;0.10;;;;;;;10.04;80.14;100772.25;4956039;28;20730;-76
2023/06/02 01:34:10;;;;;;;0.27;0.27;;;;;;;10.03;80.19;100772.53;4956119;28;20206;-75
2023/06/02 01:36:38;;;;;;;0.00;0.00;;;;;;;10.03;79.97;100765.16;4956361;28;20196;-74
2023/06/02 01:39:06;;;;;;;0.00;0.00;;;;;;;9.98;79.46;100768.00;4972883;28;20214;-76
2023/06/02 01:41:32;;;;;;;0.60;0.20;;;;;;;9.89;80.02;100766.25;4973337;28;20185;-74
2023/06/02 01:44:00;;;;;;;0.00;0.00;;;;;;;9.93;80.14;100756.34;4956015;28;20234;-76
2023/06/02 01:46:26;;;;;;;9.23;1.33;;;;;;;9.91;80.14;100756.63;4973305;28;20308;-76
2023/06/02 01:48:55;;;;;;;0.40;0.40;;;;;;;9.91;80.19;100762.09;4972828;28;20269;-76
2023/06/02 01:51:20;;;;;;;0.10;0.10;;;;;;;9.89;80.30;100769.78;4973044;28;20209;-76
2023/06/02 01:53:46;;;;;;;0.10;0.10;;;;;;;9.89;80.55;100764.31;4973017;28;20210;-75
2023/06/02 01:56:11;;;;;;;0.83;0.77;;;;;;;9.99;80.62;100771.53;4973317;28;20205;-76
2023/06/02 01:58:38;;;;;;;2.93;0.30;;;;;;;9.93;80.77;100764.53;4972621;28;20182;-76
2023/06/02 02:01:03;;;;;;;0.13;0.13;;;;;;;9.83;80.62;100763.56;4973172;28;20190;-76
2023/06/02 02:03:32;;;;;;;0.00;0.00;;;;;;;9.92;80.09;100763.72;4972884;28;20209;-76
2023/06/02 02:05:58;;;;;;;0.00;0.00;;;;;;;9.89;80.10;100772.50;4972811;28;20661;-76
2023/06/02 02:08:23;;;;;;;10.83;0.57;;;;;;;9.68;79.82;100768.47;4972519;28;20185;-76
2023/06/02 02:10:48;;;;;;;0.00;0.00;;;;;;;9.73;80.05;100771.94;4973126;28;20193;-76
2023/06/02 02:13:14;;;;;;;0.00;0.00;;;;;;;9.75;80.44;100768.91;4973148;28;20316;-76
2023/06/02 02:15:39;;;;;;;6.77;0.40;;;;;;;9.93;80.12;100762.59;4973172;28;20193;-76
2023/06/02 02:18:04;;;;;;;6.10;1.30;;;;;;;9.91;79.82;100770.28;4955007;28;20649;-76
2023/06/02 02:20:30;;;;;;;0.00;0.00;;;;;;;9.89;79.16;100766.25;4972844;28;20186;-76
2023/06/02 02:22:55;;;;;;;0.00;0.00;;;;;;;9.90;79.38;100762.41;4972838;28;20277;-76
2023/06/02 02:25:21;;;;;;;0.00;0.00;;;;;;;9.91;79.22;100766.75;4972930;28;20648;-76
2023/06/02 02:27:46;;;;;;;0.40;0.40;;;;;;;9.96;79.12;100766.66;4972379;28;20185;-76
2023/06/02 02:30:11;;;;;;;19.33;2.17;;;;;;;10.00;78.86;100759.50;4972918;28;20217;-74
2023/06/02 02:32:44;;;;;;;0.50;0.50;;;;;;;10.00;78.97;100760.31;4954910;28;20253;-76
2023/06/02 02:35:10;;;;;;;0.00;0.00;;;;;;;9.98;79.24;100762.53;4971914;28;20684;-76
2023/06/02 02:37:36;;;;;;;0.10;0.10;;;;;;;10.00;79.37;100773.16;4954710;28;20190;-76
2023/06/02 02:40:02;;;;;;;0.00;0.00;;;;;;;9.92;79.83;100765.63;4972520;28;20189;-76
2023/06/02 02:42:28;;;;;;;0.00;0.00;;;;;;;9.96;79.86;100770.19;4972256;28;20217;-74
2023/06/02 02:44:53;;;;;;;0.00;0.00;;;;;;;10.07;80.08;100771.63;4955146;28;20181;-76
2023/06/02 02:47:18;;;;;;;0.00;0.00;;;;;;;10.08;80.44;100780.63;4972195;28;20189;-76
2023/06/02 02:49:44;;;;;;;0.00;0.00;;;;;;;10.09;80.35;100780.34;4971837;28;20189;-76
2023/06/02 02:52:10;;;;;;;0.10;0.10;;;;;;;10.07;80.60;100779.03;4972249;28;20637;-76
2023/06/02 02:54:35;;;;;;;0.00;0.00;;;;;;;10.05;81.23;100781.25;4954820;28;20212;-76
2023/06/02 02:57:01;;;;;;;0.43;0.43;;;;;;;10.06;80.74;100778.22;4954834;28;20240;-74
2023/06/02 02:59:27;;;;;;;0.00;0.00;;;;;;;10.10;81.59;100778.41;4971567;28;20182;-76
2023/06/02 03:01:52;;;;;;;0.00;0.00;;;;;;;10.08;81.97;100778.72;4954669;28;20186;-76
2023/06/02 03:04:24;;;;;;;0.00;0.00;;;;;;;10.03;81.82;100778.00;4954680;28;20658;-76
2023/06/02 03:06:50;;;;;;;0.00;0.00;;;;;;;10.07;81.22;100773.56;4972030;28;20189;-76
2023/06/02 03:09:16;;;;;;;0.00;0.00;;;;;;;10.03;80.98;100761.63;4971767;28;20248;-76
2023/06/02 03:11:42;;;;;;;0.60;0.60;;;;;;;10.07;81.13;100776.28;4954572;28;20181;-76
2023/06/02 03:14:08;;;;;;;0.10;0.10;;;;;;;10.04;81.44;100766.78;4972118;28;20248;-76
2023/06/02 03:16:34;;;;;;;0.00;0.00;;;;;;;10.03;81.65;100759.72;4971886;28;20218;-76
2023/06/02 03:19:01;;;;;;;0.47;0.47;;;;;;;10.03;82.17;100769.81;4971463;28;20205;-75
2023/06/02 03:21:26;;;;;;;0.20;0.20;;;;;;;9.99;82.22;100775.06;4971972;28;20186;-76
2023/06/02 03:23:53;;;;;;;0.10;0.10;;;;;;;10.01;82.31;100770.13;4972273;28;20415;-74
2023/06/02 03:26:25;;;;;;;0.00;0.00;;;;;;;9.86;82.95;100775.84;4971882;28;20695;-76
2023/06/02 03:28:51;;;;;;;0.00;0.00;;;;;;;9.99;83.33;100779.72;4971699;28;20182;-76
2023/06/02 03:31:16;;;;;;;0.10;0.10;;;;;;;10.00;83.46;100775.88;4954516;28;20193;-76
2023/06/02 03:33:41;;;;;;;0.47;0.47;;;;;;;9.96;83.29;100781.09;4971511;28;20229;-76
2023/06/02 03:36:07;;;;;;;9.33;1.83;;;;;;;9.94;83.50;100785.25;4971853;28;20181;-76
2023/06/02 03:38:33;;;;;;;1.37;1.37;;;;;;;9.97;83.72;100798.28;4971257;28;20193;-76
2023/06/02 03:40:58;;;;;;;0.30;0.30;;;;;;;9.89;84.48;100791.63;4971836;28;20189;-74
2023/06/02 03:43:24;;;;;;;0.00;0.00;;;;;;;9.91;84.56;100794.84;4971746;28;20202;-76
2023/06/02 03:45:49;;;;;;;0.00;0.00;;;;;;;9.93;85.05;100798.09;4973812;28;20181;-76
2023/06/02 03:48:14;;;;;;;0.00;0.00;;;;;;;9.95;85.26;100795.06;4957688;28;20189;-74
2023/06/02 03:50:41;;;;;;;1.37;0.83;;;;;;;9.96;85.45;100791.22;4975466;28;20692;-76
2023/06/02 03:53:06;;;;;;;0.00;0.00;;;;;;;9.94;85.74;100793.44;4975351;28;20206;-76
2023/06/02 03:55:31;;;;;;;3.80;0.50;;;;;;;9.90;85.63;100792.41;4975198;28;20196;-76
2023/06/02 03:57:57;;;;;;;0.00;0.00;;;;;;;9.88;86.18;100797.38;4974915;28;20268;-76
2023/06/02 04:00:22;;;;;;;0.00;0.00;;;;;;;9.94;86.33;100799.69;4975128;28;20937;-76
2023/06/02 04:02:48;;;;;;;0.20;0.20;;;;;;;9.98;86.59;100800.75;4974985;28;20213;-76
2023/06/02 04:05:14;;;;;;;0.00;0.00;;;;;;;10.01;86.79;100807.53;4957769;28;20269;-74
2023/06/02 04:07:40;;;;;;;0.20;0.20;;;;;;;10.00;86.72;100812.19;4974721;28;20196;-74
2023/06/02 04:10:06;;;;;;;0.10;0.10;;;;;;;10.02;86.77;100817.34;4975215;28;20186;-76
2023/06/02 04:12:31;;;;;;;0.00;0.00;;;;;;;10.04;86.88;100815.13;4974808;28;20235;-74
2023/06/02 04:14:57;;;;;;;0.83;0.27;;;;;;;10.04;87.09;100817.84;4974952;28;20206;-76
2023/06/02 04:17:22;;;;;;;12.90;0.50;;;;;;;9.95;87.28;100816.88;4974696;28;20185;-76
2023/06/02 04:19:48;;;;;;;1.20;0.73;;;;;;;9.92;87.69;100823.75;4974594;28;20194;-74
2023/06/02 04:22:13;;;;;;;0.10;0.10;;;;;;;10.03;88.12;100814.31;4974896;28;20206;-76
2023/06/02 04:24:41;;;;;;;0.20;0.20;;;;;;;10.00;88.14;100823.09;4974684;28;20652;-76
2023/06/02 04:27:06;;;;;;;2.90;0.70;;;;;;;10.02;88.00;100822.78;4974714;28;20182;-73
2023/06/02 04:29:33;;;;;;;0.47;0.47;;;;;;;10.02;88.30;100831.78;4974383;28;20212;-77
2023/06/02 04:31:58;;;;;;;0.77;0.77;;;;;;;10.07;88.31;100837.16;4957384;28;20222;-77
2023/06/02 04:34:24;;;;;;;0.00;0.00;;;;;;;10.10;88.54;100828.38;4975781;28;20889;-75
2023/06/02 04:36:50;;;;;;;0.30;0.30;;;;;;;10.09;88.75;100840.41;4974688;28;20194;-76
2023/06/02 04:39:15;;;;;;;1.70;1.60;;;;;;;10.17;88.92;100849.84;4974266;28;20185;-76
2023/06/02 04:41:41;;;;;;;0.30;0.30;;;;;;;10.11;89.28;100837.38;4957077;28;20653;-76
2023/06/02 04:44:08;;;;;;;0.10;0.10;;;;;;;10.07;88.79;100839.06;4974577;28;20679;-76
2023/06/02 04:46:33;;;;;;;0.00;0.00;;;;;;;10.10;89.02;100846.66;4974309;28;20182;-76
2023/06/02 04:48:59;;;;;;;1.03;1.03;;;;;;;10.13;89.03;100846.91;4974047;28;20189;-76
2023/06/02 04:51:28;;;;;;;0.00;0.00;;;;;;;10.14;89.08;100842.25;4974483;28;20293;-76
2023/06/02 04:53:53;;;;;;;2.97;1.43;;;;;;;10.18;89.30;100842.47;4975108;28;20212;-78
2023/06/02 04:56:19;;;;;;;3.40;1.07;;;;;;;10.17;88.43;100846.31;4974633;28;20186;-77
2023/06/02 04:58:44;;;;;;;0.70;0.70;;;;;;;10.09;88.68;100839.59;4957811;28;20224;-76
2023/06/02 05:01:09;;;;;;;9.33;2.17;;;;;;;10.11;89.35;100851.00;4975117;28;20185;-75
2023/06/02 05:03:34;;;;;;;0.00;0.00;;;;;;;10.09;89.89;100850.50;4974142;28;20246;-75
2023/06/02 05:06:00;;;;;;;0.00;0.00;;;;;;;10.14;90.27;100851.25;4974571;28;20181;-74
2023/06/02 05:08:25;;;;;;;0.00;0.00;;;;;;;10.20;90.56;100848.44;4956398;28;20244;-76
2023/06/02 05:10:50;;;;;;;0.80;0.70;;;;;;;10.29;90.31;100852.13;4974206;28;20213;-76
2023/06/02 05:13:16;;;;;;;0.00;0.00;;;;;;;10.34;90.80;100849.31;4956580;28;20245;-76
2023/06/02 05:15:43;;;;;;;0.17;0.17;;;;;;;10.45;91.43;100850.75;4956672;28;20236;-76
2023/06/02 05:18:09;;;;;;;1.70;1.60;;;;;;;10.57;91.00;100840.16;4956063;28;20202;-76
2023/06/02 05:20:34;;;;;;;0.40;0.40;;;;;;;10.61;90.11;100843.09;4956570;28;20224;-75
2023/06/02 05:22:59;;;;;;;0.00;0.00;;;;;;;10.59;89.86;100837.94;4956309;28;20305;-77
2023/06/02 05:25:25;;;;;;;1.70;1.50;;;;;;;10.61;89.95;100843.91;4956288;28;20272;-76
2023/06/02 05:27:50;;;;;;;0.00;0.00;;;;;;;10.67;89.54;100842.69;4973172;28;20269;-76
2023/06/02 05:30:16;;;;;;;1.53;1.43;;;;;;;10.57;88.61;100840.16;4956127;28;20196;-76
2023/06/02 05:32:41;;;;;;;0.00;0.00;;;;;;;10.61;89.50;100845.81;4973305;28;20275;-76
2023/06/02 05:35:07;;;;;;;2.63;1.03;;;;;;;10.57;89.54;100842.09;4973533;28;20293;-76
2023/06/02 05:37:32;;;;;;;4.23;2.10;;;;;;;10.54;88.83;100848.13;4973392;28;20267;-76
2023/06/02 05:39:57;;;;;;;1.27;0.90;;;;;;;10.55;88.90;100849.75;4973243;28;20193;-76
2023/06/02 05:42:24;;;;;;;0.10;0.10;;;;;;;10.50;89.63;100845.19;4973211;28;20244;-76
2023/06/02 05:44:50;;;;;;;0.40;0.40;;;;;;;10.50;90.17;100847.13;4973326;28;20181;-76
2023/06/02 05:47:15;;;;;;;0.63;0.30;;;;;;;10.53;90.42;100855.50;4968229;28;20189;-76
2023/06/02 05:49:40;;;;;;;2.30;2.10;;;;;;;10.54;90.16;100846.19;4972415;28;20272;-76
2023/06/02 05:52:06;;;;;;;2.20;1.03;;;;;;;10.50;90.32;100842.47;4972637;28;20688;-75
2023/06/02 05:54:31;;;;;;;3.37;2.10;;;;;;;10.53;90.72;100849.25;4970590;28;20202;-76
2023/06/02 05:56:56;;;;;;;15.20;1.77;;;;;;;10.52;91.06;100844.88;4955965;28;20201;-76
2023/06/02 05:59:22;;;;;;;1.17;1.10;;;;;;;10.63;91.39;100851.78;4972706;28;20584;-76
2023/06/02 06:01:47;;;;;;;0.83;0.83;;;;;;;10.67;90.86;100850.88;4955553;28;20193;-76
2023/06/02 06:04:12;;;;;;;0.57;0.57;;;;;;;10.79;90.38;100852.31;4972907;28;20645;-75
2023/06/02 06:06:38;;;;;;;1.00;1.00;;;;;;;10.74;90.00;100847.75;4972833;28;20274;-76
2023/06/02 06:09:06;;;;;;;0.00;0.00;;;;;;;10.92;90.54;100862.44;4945066;28;20197;-76
2023/06/02 06:11:32;;;;;;;1.50;1.10;;;;;;;10.97;89.71;100860.41;4971475;28;20185;-76
2023/06/02 06:13:57;;;;;;;0.00;0.00;;;;;;;10.91;88.96;100850.69;4972877;28;20220;-76
2023/06/02 06:16:22;;;;;;;1.40;1.33;;;;;;;10.93;88.40;100859.41;4972735;28;20209;-76
2023/06/02 06:18:47;;;;;;;1.37;1.30;;;;;;;10.89;88.81;100863.88;4955076;28;20660;-76
2023/06/02 06:21:13;;;;;;;6.90;0.87;;;;;;;10.97;88.59;100860.41;4972716;28;20224;-75
2023/06/02 06:23:38;;;;;;;0.00;0.00;;;;;;;11.01;88.38;100857.91;4972380;28;20243;-76
2023/06/02 06:26:04;;;;;;;0.00;0.00;;;;;;;11.16;88.83;100870.47;4972454;28;20260;-76
2023/06/02 06:28:29;;;;;;;0.60;0.60;;;;;;;11.14;87.54;100859.81;4972383;28;20193;-74
2023/06/02 06:30:54;;;;;;;2.63;1.40;;;;;;;11.15;87.06;100864.19;4972787;28;20193;-76
2023/06/02 06:33:20;;;;;;;0.00;0.00;;;;;;;11.22;87.04;100861.81;4972077;28;20641;-76
2023/06/02 06:35:45;;;;;;;0.00;0.00;;;;;;;11.27;86.97;100872.66;4972912;28;20192;-76
2023/06/02 06:38:10;;;;;;;5.00;1.70;;;;;;;11.48;86.91;100881.25;4954528;28;20209;-76
2023/06/02 06:40:36;;;;;;;3.00;1.80;;;;;;;11.47;87.13;100870.63;4972415;28;20197;-76
2023/06/02 06:43:01;;;;;;;4.07;0.73;;;;;;;11.35;86.58;100873.88;4972771;28;20545;-76
2023/06/02 06:45:30;;;;;;;0.27;0.27;;;;;;;11.19;86.84;100873.38;4973241;28;20220;-76
2023/06/02 06:47:55;;;;;;;0.23;0.23;;;;;;;11.10;87.18;100882.59;4972536;28;20337;-76
2023/06/02 06:50:21;;;;;;;0.00;0.00;;;;;;;11.42;87.87;100879.72;4955885;28;20221;-76
2023/06/02 06:52:47;;;;;;;0.27;0.17;;;;;;;11.46;86.27;100879.94;4955590;28;20248;-77
2023/06/02 06:55:13;;;;;;;0.40;0.40;;;;;;;11.55;86.75;100889.03;4972378;28;20208;-76
2023/06/02 06:57:38;;;;;;;0.40;0.20;;;;;;;11.55;86.12;100884.38;4972001;28;20198;-76
2023/06/02 07:00:05;;;;;;;0.00;0.00;;;;;;;11.46;86.20;100888.16;4972328;28;20277;-76
2023/06/02 07:02:31;;;;;;;0.10;0.10;;;;;;;11.41;87.25;100885.50;4955197;28;20652;-74
2023/06/02 07:04:56;;;;;;;1.17;0.67;;;;;;;11.45;87.73;100898.28;4955164;28;20288;-76
2023/06/02 07:07:21;;;;;;;0.00;0.00;;;;;;;11.41;87.78;100893.72;4954894;28;20217;-76
2023/06/02 07:09:47;;;;;;;0.83;0.83;;;;;;;11.58;87.53;100896.66;4972100;28;20185;-76
2023/06/02 07:12:12;;;;;;;0.63;0.63;;;;;;;11.57;87.12;100895.84;4954667;28;20205;-76
2023/06/02 07:14:38;;;;;;;0.10;0.10;;;;;;;11.68;87.10;100893.69;4972104;28;20226;-76
2023/06/02 07:17:03;;;;;;;0.23;0.23;;;;;;;11.76;87.24;100903.91;4972033;28;20325;-76
2023/06/02 07:19:29;;;;;;;1.43;1.33;;;;;;;11.69;86.57;100900.75;4972814;28;20196;-76
2023/06/02 07:21:54;;;;;;;0.50;0.50;;;;;;;11.75;87.17;100902.28;4978290;28;20185;-76
2023/06/02 07:24:20;;;;;;;0.83;0.70;;;;;;;11.79;87.66;100905.25;4978888;28;20188;-76
2023/06/02 07:26:45;;;;;;;9.17;2.33;;;;;;;11.67;87.50;100892.06;4978444;28;20715;-76
2023/06/02 07:29:11;;;;;;;0.00;0.00;;;;;;;11.66;87.52;100895.91;4960665;28;20189;-76
2023/06/02 07:31:36;;;;;;;0.00;0.00;;;;;;;11.91;88.50;100902.78;4978489;28;20260;-75
2023/06/02 07:34:02;;;;;;;0.57;0.57;;;;;;;12.17;88.83;100909.28;4961560;28;20244;-76
2023/06/02 07:36:27;;;;;;;0.20;0.20;;;;;;;12.16;87.11;100902.19;4979178;28;20691;-76
2023/06/02 07:38:52;;;;;;;1.90;1.80;;;;;;;12.17;85.77;100903.00;4961644;28;20276;-75
2023/06/02 07:41:18;;;;;;;1.60;1.50;;;;;;;12.31;85.38;100901.00;4978680;28;20352;-76
2023/06/02 07:43:43;;;;;;;0.27;0.27;;;;;;;12.24;85.45;100905.28;4978218;28;20677;-77
2023/06/02 07:46:09;;;;;;;2.47;1.90;;;;;;;12.30;85.88;100896.66;4978545;28;20189;-76
2023/06/02 07:48:35;;;;;;;0.93;0.33;;;;;;;11.94;85.04;100899.41;4977434;28;20655;-75
2023/06/02 07:51:01;;;;;;;0.10;0.10;;;;;;;12.03;85.11;100903.06;4979236;28;20232;-75
2023/06/02 07:53:26;;;;;;;0.00;0.00;;;;;;;12.27;84.98;100907.41;4973793;28;20206;-76
2023/06/02 07:55:52;;;;;;;0.00;0.00;;;;;;;12.28;85.00;100909.84;4961016;28;20196;-77
2023/06/02 07:58:17;;;;;;;1.37;1.13;;;;;;;12.50;84.80;100911.78;4979474;28;20268;-77
2023/06/02 08:00:42;;;;;;;0.03;0.03;;;;;;;12.57;84.04;100909.38;4979781;28;20200;-77
2023/06/02 08:03:08;;;;;;;0.53;0.40;;;;;;;12.47;83.60;100907.72;4979858;28;20271;-77
2023/06/02 08:05:33;;;;;;;3.00;1.13;;;;;;;12.44;84.19;100910.25;4980439;28;20182;-77
2023/06/02 08:07:58;;;;;;;5.23;1.90;;;;;;;12.38;83.75;100911.53;4981197;28;20596;-77
2023/06/02 08:10:24;;;;;;;1.03;1.03;;;;;;;12.36;83.94;100914.56;4963658;28;20186;-77
2023/06/02 08:12:49;;;;;;;3.67;2.80;;;;;;;12.48;84.84;100909.34;4980998;28;20285;-77
2023/06/02 08:15:15;;;;;;;0.00;0.00;;;;;;;12.44;83.88;100913.84;4963693;28;20218;-77
2023/06/02 08:17:40;;;;;;;12.80;2.97;;;;;;;12.55;85.02;100911.63;4980483;28;20648;-77
2023/06/02 08:20:07;;;;;;;3.73;3.20;;;;;;;12.48;85.00;100906.59;4963223;28;20205;-76
2023/06/02 08:22:34;;;;;;;2.83;1.03;;;;;;;12.43;84.33;100906.72;4980935;28;20214;-77
2023/06/02 08:25:00;;;;;;;2.40;2.20;;;;;;;12.49;85.00;100910.16;4963283;28;20193;-77
2023/06/02 08:27:26;;;;;;;2.30;2.10;;;;;;;12.62;85.97;100908.47;4979728;28;20662;-77
2023/06/02 08:29:53;;;;;;;0.30;0.30;;;;;;;12.64;84.54;100919.91;4979735;28;20196;-77
2023/06/02 08:32:20;;;;;;;0.93;0.93;;;;;;;12.56;83.61;100905.03;4976866;28;20272;-77
2023/06/02 08:34:47;;;;;;;4.50;1.13;;;;;;;12.47;83.60;100910.47;4959748;28;20205;-77
2023/06/02 08:37:17;;;;;;;1.97;1.87;;;;;;;12.53;84.70;100911.13;4960377;28;20186;-77
2023/06/02 08:39:47;;;;;;;8.83;1.00;;;;;;;12.40;85.09;100909.28;4975918;28;20235;-77
2023/06/02 08:42:14;;;;;;;4.67;3.43;;;;;;;12.41;85.43;100919.13;4976543;28;20222;-77
2023/06/02 08:44:41;;;;;;;0.97;0.97;;;;;;;12.53;85.83;100916.63;4959144;28;20673;-77
2023/06/02 08:47:10;;;;;;;0.00;0.00;;;;;;;12.87;84.68;100921.47;4976937;28;20189;-77
2023/06/02 08:49:38;;;;;;;0.27;0.27;;;;;;;13.07;82.84;100918.22;4976869;28;20240;-77
2023/06/02 08:52:09;;;;;;;0.00;0.00;;;;;;;13.32;82.31;100918.66;4977749;28;20202;-77
2023/06/02 08:54:35;;;;;;;0.13;0.13;;;;;;;13.27;80.74;100908.63;4974820;28;20292;-78
2023/06/02 08:57:04;;;;;;;0.00;0.00;;;;;;;13.51;79.49;100904.66;4977265;28;20201;-78
2023/06/02 08:59:29;;;;;;;6.80;3.50;;;;;;;13.57;80.62;100914.34;4976140;28;20214;-78
2023/06/02 09:01:55;;;;;;;6.13;1.87;;;;;;;13.44;80.89;100910.59;4975636;28;20675;-77
2023/06/02 09:04:20;;;;;;;4.27;1.27;;;;;;;13.34;81.39;100911.72;4958554;28;20236;-77
2023/06/02 09:06:49;;;;;;;0.13;0.13;;;;;;;13.38;81.42;100918.19;4976106;28;20190;-77
2023/06/02 09:09:14;;;;;;;0.00;0.00;;;;;;;13.51;81.96;100923.88;4958905;28;20538;-77
2023/06/02 09:11:56;;;;;;;4.17;2.07;;;;;;;13.45;79.53;100920.44;4958756;28;20206;-77
2023/06/02 09:14:22;;;;;;;0.00;0.00;;;;;;;13.42;79.23;100928.53;4975982;28;20260;-78
2023/06/02 09:16:47;;;;;;;0.13;0.10;;;;;;;13.77;79.13;100932.97;4975972;28;20618;-78
2023/06/02 09:19:13;;;;;;;0.10;0.10;;;;;;;13.61;77.70;100916.16;4975803;28;20189;-78
2023/06/02 09:21:38;;;;;;;50.80;1.73;;;;;;;13.94;77.00;100922.00;4967699;28;20224;-78
2023/06/02 09:24:04;;;;;;;2.97;1.10;;;;;;;14.13;76.69;100918.13;4975613;28;20181;-78
2023/06/02 09:26:30;;;;;;;0.40;0.40;;;;;;;13.96;76.79;100921.69;4975367;28;20673;-77
2023/06/02 09:29:06;;;;;;;1.23;1.13;;;;;;;14.19;77.69;100925.09;4975139;28;20668;-78
2023/06/02 09:31:52;;;;;;;0.13;0.13;;;;;;;14.43;77.92;100927.31;4975220;28;20177;-77
2023/06/02 09:34:19;;;;;;;0.83;0.83;;;;;;;14.55;75.78;100917.31;4976130;28;20263;-77
2023/06/02 09:36:51;;;;;;;0.00;0.00;;;;;;;14.46;74.63;100919.25;4958480;28;20177;-78
2023/06/02 09:39:33;;;;;;;0.53;0.53;;;;;;;14.63;75.93;100931.38;4975133;28;20186;-77
2023/06/02 09:41:59;;;;;;;1.33;1.23;;;;;;;14.74;75.25;100925.19;4975596;28;20177;-78
2023/06/02 09:44:26;;;;;;;0.20;0.20;;;;;;;14.75;74.39;100926.81;4957781;28;20232;-78
2023/06/02 09:46:51;;;;;;;2.63;1.10;;;;;;;14.56;73.12;100910.69;4975129;28;20178;-78
2023/06/02 09:49:17;;;;;;;0.00;0.00;;;;;;;14.56;72.58;100912.63;4975558;28;20240;-77
2023/06/02 09:51:42;;;;;;;0.00;0.00;;;;;;;14.83;73.48;100919.69;4975745;28;20221;-77
2023/06/02 09:54:08;;;;;;;0.00;0.00;;;;;;;15.02;72.91;100919.28;4975516;28;20201;-78
2023/06/02 09:56:37;;;;;;;0.00;0.00;;;;;;;15.36;74.12;100927.41;4975572;28;20178;-78
2023/06/02 09:59:06;;;;;;;0.00;0.00;;;;;;;15.42;72.50;100920.56;4957567;28;20185;-75
2023/06/02 10:01:34;;;;;;;0.00;0.00;;;;;;;15.15;71.02;100918.25;4973592;28;20182;-78
2023/06/02 10:04:01;;;;;;;0.00;0.00;;;;;;;15.35;71.43;100913.97;4976206;28;20575;-78
2023/06/02 10:06:35;;;;;;;0.00;0.00;;;;;;;15.36;71.06;100915.59;4976286;28;20614;-78
2023/06/02 10:09:25;;;;;;;0.00;0.00;;;;;;;15.59;70.83;100918.84;4975753;28;20711;-78
2023/06/02 10:11:53;;;;;;;0.10;0.10;;;;;;;15.50;68.90;100909.84;4968132;28;20273;-78
2023/06/02 10:14:47;;;;;;;0.00;0.00;;;;;;;15.62;68.39;100908.00;4975713;28;20699;-78
2023/06/02 10:17:31;;;;;;;0.30;0.30;;;;;;;15.70;69.04;100907.13;4976199;28;20178;-78
2023/06/02 10:20:13;;;;;;;0.20;0.20;;;;;;;15.52;69.04;100902.84;4958750;28;20197;-78
2023/06/02 10:22:48;;;;;;;0.00;0.00;;;;;;;15.64;69.29;100904.94;4958442;28;20245;-78
2023/06/02 10:25:25;;;;;;;0.00;0.00;;;;;;;15.89;69.20;100900.34;4959872;28;20205;-76
2023/06/02 10:27:51;;;;;;;0.00;0.00;;;;;;;16.02;68.65;100905.59;4976585;28;20189;-77
2023/06/02 10:30:21;;;;;;;0.00;0.00;;;;;;;16.14;68.81;100896.59;4976844;28;20261;-76
2023/06/02 10:32:48;;;;;;;0.20;0.20;;;;;;;15.85;68.31;100894.72;4964595;28;20221;-78
2023/06/02 10:35:14;;;;;;;0.00;0.00;;;;;;;15.79;67.89;100892.50;4972071;28;20684;-76
2023/06/02 10:37:40;;;;;;;0.00;0.00;;;;;;;15.94;68.72;100898.22;4974816;28;20244;-78
2023/06/02 10:40:08;;;;;;;0.03;0.03;;;;;;;16.22;68.38;100900.41;4970894;28;20562;-78
2023/06/02 10:42:34;;;;;;;0.20;0.20;;;;;;;15.82;68.12;100891.81;4975723;28;20201;-78
2023/06/02 10:45:18;;;;;;;0.00;0.00;;;;;;;15.70;68.47;100887.84;4959055;28;20186;-78
2023/06/02 10:47:45;;;;;;;0.00;0.00;;;;;;;15.85;67.91;100891.97;4958544;28;20201;-78
2023/06/02 10:50:14;;;;;;;0.60;0.60;;;;;;;16.28;68.14;100897.09;4975054;28;20257;-77
2023/06/02 10:52:58;;;;;;;0.10;0.10;;;;;;;16.47;67.91;100895.78;4974782;28;20209;-78
2023/06/02 10:55:25;;;;;;;0.00;0.00;;;;;;;16.82;69.11;100899.03;4958935;28;20622;-78
2023/06/02 10:57:57;;;;;;;1.37;0.63;;;;;;;16.57;66.47;100881.56;4977123;28;20601;-78
2023/06/02 11:00:32;;;;;;;0.00;0.00;;;;;;;16.82;67.13;100890.75;4959543;28;20200;-78
2023/06/02 11:02:58;;;;;;;0.00;0.00;;;;;;;16.95;66.74;100884.91;4977405;28;20205;-78
2023/06/02 11:05:25;;;;;;;0.00;0.00;;;;;;;16.77;66.20;100875.19;4977167;28;20895;-78
2023/06/02 11:08:18;;;;;;;0.00;0.00;;;;;;;16.86;66.20;100875.91;4972334;28;20644;-78
2023/06/02 11:10:50;;;;;;;0.47;0.47;;;;;;;16.09;66.67;100871.19;4971164;28;20178;-77
2023/06/02 11:13:16;;;;;;;0.70;0.43;;;;;;;15.89;67.63;100878.31;4956835;28;20300;-78
2023/06/02 11:15:54;;;;;;;0.93;0.93;;;;;;;16.03;68.32;100876.88;4974256;28;20213;-77
2023/06/02 11:18:23;;;;;;;1.90;0.33;;;;;;;15.95;68.52;100879.72;4956380;28;20652;-77
2023/06/02 11:20:53;;;;;;;0.00;0.00;;;;;;;15.72;68.71;100882.81;4956507;28;20194;-78
2023/06/02 11:23:20;;;;;;;2.63;1.33;;;;;;;15.83;68.20;100880.47;4974260;28;20695;-78
2023/06/02 11:25:48;;;;;;;0.17;0.17;;;;;;;15.84;68.56;100884.03;4974472;28;20188;-78